Tiempo atmosférico en la estación meteorológica de La Riba de Escalote, Soria (1042 m.)



Fecha
DESCASC
Temp. máxima en grados centígrados (hora)
DESCASC
Temp. mínima en grados centígrados (hora)
DESCASC
Temp. media en grados centígrados
DESCASC
Racha de viento máxima en m/sg (hora)
DESCASC
Velocidad máxima media en intervalos de 10 minutos(hora)
DESCASC
Precipitaciones diarias en mm
DESCASC
Precipitaciones de 00:00 a 06:00 en mm
DESCASC
Precipitaciones de 06:00 a 12:00 en mm
DESCASC
Precipitaciones de 12:00 a 18:00 en mm
DESCASC
Precipitaciones de 18:00 a 24:00 en mm
DESCASC
25-04-2019 8.5 (02:10) 2.4 (14:10) 5.5 21.11 (19:20) 13.89 (19:20) 13 6.6 0.4 6 0
24-04-2019 9.7 (18:10) 0.9 (10:30) 5.3 20 (14:00) 15 (14:10) 10.2 2.2 1.8 2 4.2
23-04-2019 9.6 (00:00) 3.8 (23:20) 6.7 17.78 (19:10) 13.33 (19:10) 0.6 0 0 0.4 0.2
22-04-2019 14 (18:00) 5.2 (00:00) 9.6 9.72 (21:40) 7.22 (23:40) 1 0.8 0 0 0.2
21-04-2019 7.8 (19:30) 5.3 (00:00) 6.6 10.83 (12:20) 8.06 (12:20) 0 0 0 0 0
20-04-2019 15.4 (16:20) 7 (00:00) 11.2 22.22 (14:10) 15.83 (13:30) 0 0 0 0 0
19-04-2019 11.1 (17:40) 6.1 (00:00) 8.6 18.89 (17:20) 13.89 (17:20) 7.8 5.8 1.2 0.8 0
18-04-2019 14.4 (00:00) 6.1 (00:00) 10.2 11.67 (06:50) 8.33 (06:20) 38.8 2.6 15.4 9.6 11.2
17-04-2019 21.7 (18:00) 7.2 (00:00) 14.5 15.28 (15:40) 11.11 (15:50) 0 0 0 0 0
16-04-2019 18 (17:20) 3.4 (00:00) 10.7 10.83 (00:10) 8.61 (00:10) 0 0 0 0 0
15-04-2019 19.9 (18:30) 7.1 (00:00) 13.5 19.44 (21:20) 12.78 (21:20) 0.6 0 0 0.4 0.2
14-04-2019 18.7 (17:00) 4.9 (00:00) 11.8 11.94 (13:00) 8.89 (13:30) 0 0 0 0 0
13-04-2019 18.2 (17:20) -3.2 (-00:0) 7.5 8.33 (17:30) 5.56 (19:40) 0 0 0 0 0
12-04-2019 14.8 (18:10) -0.3 (00:00) 7.3 9.72 (16:00) 7.5 (20:00) 0 0 0 0 0
11-04-2019 11 (14:10) 0.5 (00:00) 5.8 12.5 (16:40) 8.33 (16:40) 0 0 0 0 0
10-04-2019 9.7 (18:00) 2.7 (00:00) 6.2 12.78 (18:10) 8.33 (10:00) 1 0.2 0.4 0.2 0.2
09-04-2019 8.2 (14:10) 3.2 (00:00) 5.7 16.39 (18:00) 11.94 (17:20) 2 0 0 2 0
08-04-2019 12.9 (17:10) 3.6 (00:00) 8.2 14.17 (15:40) 11.11 (15:40) 1.4 0.4 0.8 0.2 0
07-04-2019 9.4 (17:50) 1.6 (00:00) 5.5 14.17 (00:40) 10.56 (00:30) 0.6 0 0 0 0.6
06-04-2019 6.9 (16:10) -0.8 (-00:0) 3.1 20.28 (16:20) 14.72 (16:20) 2.8 0 2.2 0.2 0.4
05-04-2019 6.3 (02:10) 0.2 (00:00) 3.3 17.22 (06:20) 12.78 (05:50) 3.8 0 0.2 0.8 2.8
04-04-2019 10.6 (16:50) -3.2 (-00:0) 3.7 12.78 (17:00) 9.44 (17:50) 0 0 0 0 0
03-04-2019 8.4 (15:40) -0.6 (23:50) 3.9 15.28 (12:40) 11.94 (12:40) 0 0 0 0 0
02-04-2019 13.3 (13:20) 3.8 (00:00) 8.6 13.89 (18:50) 8.89 (14:30) 8.4 0 0 6.8 1.6
01-04-2019 13.5 (15:50) 4.5 (00:00) 9 9.72 (20:20) 6.94 (16:30) 0.6 0 0.2 0 0.4
31-03-2019 10.6 (14:00) 2.2 (00:00) 6.4 11.39 (12:40) 8.61 (12:40) 1.2 0 0 0.2 1
30-03-2019 16.1 (16:30) 3.5 (00:00) 9.8 10.28 (23:20) 8.06 (23:20) 0 0 0 0 0
29-03-2019 15.4 (16:00) 3.6 (00:00) 9.5 12.22 (05:10) 8.89 (06:20) 0 0 0 0 0
28-03-2019 16.9 (16:00) -4 (-00:0) 6.4 9.44 (20:00) 7.22 (20:00) 0 0 0 0 0
27-03-2019 16 (15:20) -5 (-00:0) 5.5 12.22 (18:00) 8.06 (16:20) 0 0 0 0 0

Gráficas

Temp. máximas Temp. mínimas Temp. medias Precipitaciones Rachas de viento máximas Velocidades máximas media en intervalos de 10 minutos

Datos horarios

Fecha y hora oficial Temperatura (ºC) Velocidad del viento (km/h) Dirección del viento Racha (km/h) Dirección de racha Precipitación (mm) Presión (hPa) Tendencia (hPa) Humedad (%)
2019-04-25 23:00:00 5.4 23 Oeste 51 Oeste 0 -- -- 77
2019-04-25 22:00:00 5.9 21 Oeste 41 Oeste 0 -- -- 67
2019-04-25 21:00:00 6.4 22 Oeste 56 Oeste 0 -- -- 73
2019-04-25 20:00:00 7.4 34 Oeste 76 Oeste 0 -- -- 71
2019-04-25 19:00:00 7.6 19 Sudoeste 36 Oeste 0 -- -- 80
2019-04-25 18:00:00 5.9 34 Sudoeste 58 Sudoeste 0.2 -- -- 82
2019-04-25 17:00:00 7.7 25 Sudoeste 43 Sudoeste 0 -- -- 79
2019-04-25 16:00:00 7.4 28 Sudoeste 38 Oeste 0 -- -- 83
2019-04-25 15:00:00 7.8 28 Oeste 43 Oeste 1.4 -- -- 74
2019-04-25 14:00:00 2.7 38 Oeste 72 Oeste 4.4 -- -- 90
2019-04-25 13:00:00 7 13 Oeste 28 Sudoeste 0 -- -- 76
2019-04-25 12:00:00 5.3 17 Oeste 42 Oeste 0 -- -- 82
2019-04-25 11:00:00 6.8 18 Sudoeste 31 Sudoeste 0.2 -- -- 84
2019-04-25 10:00:00 5.4 16 Sudoeste 46 Sudoeste 0.2 -- -- 87
2019-04-25 09:00:00 4.8 33 Sudoeste 47 Sudoeste 0 -- -- 88
2019-04-25 08:00:00 4.4 26 Sudoeste 38 Sudoeste 0 -- -- 91
2019-04-25 07:00:00 3.7 16 Sudoeste 24 Sudoeste 0 -- -- 85
2019-04-25 06:00:00 4.2 13 Oeste 46 Oeste 0 -- -- 83
2019-04-25 05:00:00 5.6 37 Oeste 64 Oeste 0.8 -- -- 80
2019-04-25 04:00:00 6.2 16 Oeste 30 Oeste 2.4 -- -- 94
2019-04-25 03:00:00 6.4 20 Oeste 52 Sudoeste 1.8 -- -- 92
2019-04-25 02:00:00 8.4 35 Sudoeste 60 Sudoeste 1.6 -- -- 94
2019-04-25 01:00:00 8 39 Sudoeste 58 Sudoeste 0 -- -- 92
2019-04-25 00:00:00 7.9 36 Sudoeste 55 Sudoeste 0 -- -- 91
2019-04-24 23:00:00 7.6 35 Sudoeste 59 Sudoeste 0 -- -- 92
2019-04-24 22:00:00 8.5 24 Sudoeste 41 Sudoeste 1 -- -- 92
2019-04-24 21:00:00 8.3 22 Oeste 53 Sudoeste 2.2 -- -- 88
2019-04-24 20:00:00 8.4 29 Sudoeste 55 Sudoeste 0.8 -- -- 92
2019-04-24 19:00:00 8.6 39 Sudoeste 69 Sudoeste 0.2 -- -- 91
2019-04-24 18:00:00 9.2 44 Sudoeste 66 Sudoeste 1.8 -- -- 93
2019-04-24 17:00:00 9.4 32 Sudoeste 51 Sudoeste 0.2 -- -- 91
2019-04-24 16:00:00 8.8 28 Sudoeste 54 Sudoeste 0 -- -- 91
2019-04-24 15:00:00 8.3 39 Sudoeste 72 Sudoeste 0 -- -- 84
2019-04-24 14:00:00 6.7 54 Sudoeste 72 Sudoeste 0 -- -- 90
2019-04-24 13:00:00 4.6 51 Sudoeste 72 Sudoeste 0 -- -- 94
2019-04-24 12:00:00 2.8 43 Sur 69 Sur 0.4 -- -- 96
2019-04-24 11:00:00 1.2 39 Sur 51 Sur 0.6 -- -- 96
2019-04-24 10:00:00 1.5 30 Sur 56 Sudoeste 0.6 -- -- 93
2019-04-24 09:00:00 2.6 31 Sudoeste 48 Sudoeste 0.2 -- -- 93
2019-04-24 08:00:00 2.4 28 Sudoeste 49 Oeste 0 -- -- 92
2019-04-24 07:00:00 2.1 23 Sudoeste 35 Sudoeste 0 -- -- 95
2019-04-24 06:00:00 1.3 19 Sudoeste 24 Oeste 1.2 -- -- 95
2019-04-24 05:00:00 2.1 18 Oeste 39 Sudoeste 0.8 -- -- 93
2019-04-24 04:00:00 2.9 20 Sudoeste 28 Sudoeste 0.2 -- -- 91
2019-04-24 03:00:00 3.4 12 Sudoeste 27 Sudoeste 0 -- -- 89
2019-04-24 02:00:00 3.2 21 Sudoeste 28 Sudoeste 0 -- -- 89
2019-04-24 01:00:00 3.5 6 Sudoeste 14 Oeste 0 -- -- 88
2019-04-24 00:00:00 3.8 7 Sudoeste 24 Oeste 0 -- -- 87
2019-04-23 23:00:00 3.9 16 Oeste 36 Sudoeste 0.2 -- -- 87
2019-04-23 22:00:00 4.6 14 Oeste 36 Oeste 0 -- -- 81
2019-04-23 21:00:00 5 21 Noroeste 41 Noroeste 0 -- -- 79
2019-04-23 20:00:00 6.5 27 Sudoeste 64 Sudoeste 0 -- -- 71
2019-04-23 19:00:00 8.6 29 Sudoeste 45 Sudoeste 0 -- -- 58
2019-04-23 18:00:00 8.8 28 Sudoeste 46 Sudoeste 0 -- -- 68
2019-04-23 17:00:00 7.5 28 Sudoeste 58 Sudoeste 0.2 -- -- 73
2019-04-23 16:00:00 7.2 32 Sudoeste 42 Sudoeste 0 -- -- 84
2019-04-23 15:00:00 8.6 30 Sudoeste 44 Sudoeste 0.2 -- -- 78
2019-04-23 14:00:00 8.9 27 Sur 44 Sudoeste 0 -- -- 79
2019-04-23 13:00:00 8.2 23 Sur 44 Sudoeste 0 -- -- 86
2019-04-23 12:00:00 7.8 28 Sudoeste 48 Sudoeste 0 -- -- 87
2019-04-23 11:00:00 8.7 28 Sudoeste 42 Sudoeste 0 -- -- 85
2019-04-23 10:00:00 8 17 Sur 26 Sur 0 -- -- 86
2019-04-23 09:00:00 8.2 10 Sur 28 Sur 0 -- -- 86
2019-04-23 08:00:00 7.9 17 Sur 26 Sudoeste 0 -- -- 85
2019-04-23 07:00:00 8 6 Sur 28 Sudoeste 0 -- -- 88
2019-04-23 06:00:00 8.1 4 Sur 24 Sudoeste 0 -- -- 89
2019-04-23 05:00:00 8.4 15 Sur 28 Sudoeste 0 -- -- 87
2019-04-23 04:00:00 7.8 9 Sur 32 Sur 0 -- -- 88
2019-04-23 03:00:00 8.3 25 Sur 35 Sudoeste 0 -- -- 86
2019-04-23 02:00:00 8.3 11 Sur 32 Sur 0 -- -- 86
2019-04-23 01:00:00 9 22 Sur 29 Sur 0 -- -- 82
2019-04-23 00:00:00 9.6 23 Sudoeste 30 Sudoeste 0 -- -- 78
2019-04-22 23:00:00 9.3 8 Sudoeste 24 Sur 0.2 -- -- 82
2019-04-22 22:00:00 9.3 15 Sudoeste 35 Oeste 0 -- -- 82
2019-04-22 21:00:00 10 14 Oeste 28 Oeste 0 -- -- 79
2019-04-22 20:00:00 11.7 17 Oeste 31 Oeste 0 -- -- 71
2019-04-22 19:00:00 12.9 7 Oeste 14 Sudoeste 0 -- -- 61
2019-04-22 18:00:00 14 4 Sudoeste 10 Sudoeste 0 -- -- 59
2019-04-22 17:00:00 12.4 3 Oeste 7 Noroeste 0 -- -- 63
2019-04-22 16:00:00 12.3 4 Noroeste 13 Nordeste 0 -- -- 61
2019-04-22 15:00:00 12.7 9 Nordeste 14 Nordeste 0 -- -- 62
2019-04-22 14:00:00 12.7 4 Oeste 14 Sudeste 0 -- -- 57
2019-04-22 13:00:00 12.3 6 Sudeste 17 Este 0 -- -- 62
2019-04-22 12:00:00 11.5 4 Nordeste 12 Nordeste 0 -- -- 66
2019-04-22 11:00:00 10.1 2 Este 8 Nordeste 0 -- -- 79
2019-04-22 10:00:00 8 2 Norte 4 Norte 0 -- -- 93
2019-04-22 09:00:00 5.9 0 Calma 3 Nordeste 0 -- -- 97
2019-04-22 08:00:00 5.3 2 Noroeste 5 Noroeste 0 -- -- 96
2019-04-22 07:00:00 5.3 3 Noroeste 8 Oeste 0 -- -- 96
2019-04-22 06:00:00 5.4 6 Oeste 9 Oeste 0 -- -- 96
2019-04-22 05:00:00 5.6 0 Calma 2 Oeste 0 -- -- 96
2019-04-22 04:00:00 5.6 0 Calma 5 Oeste 0.2 -- -- 96
2019-04-22 03:00:00 5.5 4 Oeste 9 Oeste 0 -- -- 96
2019-04-22 02:00:00 5.8 0 Calma 10 Este 0.6 -- -- 94
2019-04-22 01:00:00 5.9 6 Nordeste 14 Nordeste 0 -- -- 92
2019-04-22 00:00:00 6 12 Este 18 Este 0 -- -- 92
2019-04-21 23:00:00 6.2 10 Este 23 Este 0 -- -- 92
2019-04-21 22:00:00 7.1 20 Este 27 Este 0 -- -- 84
2019-04-21 21:00:00 7.5 11 Este 19 Este 0 -- -- 80
2019-04-21 20:00:00 7.8 12 Este 26 Este 0 -- -- 75
2019-04-21 19:00:00 7.7 13 Este 24 Este 0 -- -- 79
2019-04-21 18:00:00 7.5 13 Este 26 Nordeste 0 -- -- 79
2019-04-21 17:00:00 7.4 21 Este 30 Este 0 -- -- 80
2019-04-21 16:00:00 7.4 19 Este 28 Este 0 -- -- 80
2019-04-21 15:00:00 7.1 19 Este 33 Este 0 -- -- 82
2019-04-21 14:00:00 7.2 26 Este 35 Este 0 -- -- 80
2019-04-21 13:00:00 7.2 23 Este 39 Este 0 -- -- 81
2019-04-21 12:00:00 7.3 22 Este 30 Este 0 -- -- 80
2019-04-21 11:00:00 6.6 18 Este 29 Este 0 -- -- 86
2019-04-21 10:00:00 6.2 22 Nordeste 28 Nordeste 0 -- -- 88
2019-04-21 09:00:00 5.7 17 Nordeste 24 Este 0 -- -- 91
2019-04-21 08:00:00 5.3 15 Este 27 Este 0 -- -- 92
2019-04-21 07:00:00 5.4 19 Este 31 Este 0 -- -- 89
2019-04-21 06:00:00 5.3 13 Este 27 Este 0 -- -- 88
2019-04-21 05:00:00 5.3 19 Este 32 Este 0 -- -- 86
2019-04-21 04:00:00 5.4 27 Sudeste 34 Este 0 -- -- 85
2019-04-21 03:00:00 5.9 18 Sudeste 26 Sudeste 0 -- -- 83
2019-04-21 02:00:00 6.7 18 Sudeste 27 Sudeste 0 -- -- 79
2019-04-21 01:00:00 7.1 10 Sudeste 15 Sudeste 0 -- -- 80
2019-04-21 00:00:00 7.4 9 Sudeste 15 Sudeste 0 -- -- 78
2019-04-20 23:00:00 7.7 10 Sudeste 22 Sudeste 0 -- -- 76
2019-04-20 22:00:00 9 23 Sudeste 32 Sudeste 0 -- -- 69
2019-04-20 21:00:00 11.2 21 Sudeste 30 Este 0 -- -- 59
2019-04-20 20:00:00 13.1 23 Este 46 Este 0 -- -- 50
2019-04-20 19:00:00 13.9 28 Este 46 Este 0 -- -- 48
2019-04-20 18:00:00 14.3 32 Este 51 Sudeste 0 -- -- 48
2019-04-20 17:00:00 14.7 40 Este 56 Este 0 -- -- 48
2019-04-20 16:00:00 15.2 40 Este 55 Este 0 -- -- 43
2019-04-20 15:00:00 14.8 42 Este 80 Este 0 -- -- 45
2019-04-20 14:00:00 14.5 50 Este 77 Este 0 -- -- 44
2019-04-20 13:00:00 13.8 48 Este 62 Este 0 -- -- 49
2019-04-20 12:00:00 12.9 37 Este 57 Este 0 -- -- 51
2019-04-20 11:00:00 12 30 Este 46 Nordeste 0 -- -- 59
2019-04-20 10:00:00 10.4 23 Este 35 Este 0 -- -- 66
2019-04-20 09:00:00 9.1 17 Este 29 Este 0 -- -- 72
2019-04-20 08:00:00 7.5 17 Este 37 Este 0 -- -- 77
2019-04-20 07:00:00 7.5 24 Este 34 Nordeste 0 -- -- 77
2019-04-20 06:00:00 7.8 12 Este 28 Nordeste 0 -- -- 76
2019-04-20 05:00:00 7.9 10 Este 41 Este 0 -- -- 76
2019-04-20 04:00:00 7.5 18 Este 28 Este 0 -- -- 79
2019-04-20 03:00:00 7.3 14 Sudeste 33 Este 0 -- -- 79
2019-04-20 02:00:00 8.6 28 Este 48 Este 0 -- -- 72
2019-04-20 01:00:00 9 26 Este 46 Sudeste 0 -- -- 69
2019-04-20 00:00:00 8.6 15 Este 28 Sudeste 0 -- -- 74
2019-04-19 23:00:00 9.3 19 Este 42 Este 0 -- -- 72
2019-04-19 22:00:00 9.6 18 Este 38 Este 0 -- -- 72
2019-04-19 21:00:00 10.3 25 Este 66 Este 0 -- -- 69
2019-04-19 20:00:00 11 40 Este 57 Este 0 -- -- 68
2019-04-19 19:00:00 11.1 40 Este 61 Este 0 -- -- 74
2019-04-19 18:00:00 11.1 34 Este 68 Este 0 -- -- 76
2019-04-19 17:00:00 10.9 41 Este 59 Este 0 -- -- 81
2019-04-19 16:00:00 9.8 34 Este 55 Este 0 -- -- 89
2019-04-19 15:00:00 8.4 32 Este 57 Este 0 -- -- 95
2019-04-19 14:00:00 7.7 24 Este 47 Este 0.8 -- -- 98
2019-04-19 13:00:00 7.1 9 Este 22 Este 0 -- -- 96
2019-04-19 12:00:00 7.7 13 Este 18 Sudeste 0.2 -- -- 95
2019-04-19 11:00:00 7.1 14 Sudeste 30 Sudeste 0.6 -- -- 94
2019-04-19 10:00:00 7 24 Sudeste 40 Sudeste 0.2 -- -- 93
2019-04-19 09:00:00 6.9 31 Este 40 Este 0.2 -- -- 95
2019-04-19 08:00:00 6.9 30 Este 40 Sudeste 0 -- -- 97
2019-04-19 07:00:00 6.8 27 Sudeste 40 Este 0 -- -- 97
2019-04-19 06:00:00 6.4 22 Sudeste 35 Este 0 -- -- 97
2019-04-19 05:00:00 6.2 19 Sudeste 27 Sudeste 0.2 -- -- 98
2019-04-19 04:00:00 6.2 19 Este 44 Este 0.6 -- -- 97
2019-04-19 03:00:00 6.2 21 Este 43 Este 0.6 -- -- 97
2019-04-19 02:00:00 6.2 24 Este 37 Sudeste 1.6 -- -- 97
2019-04-19 01:00:00 6.1 26 Sudeste 37 Sudeste 2.8 -- -- 96
2019-04-19 00:00:00 6.5 15 Sudeste 24 Sudeste 0.8 -- -- 95
2019-04-18 23:00:00 6.7 10 Sudeste 14 Sudeste 1.4 -- -- 97
2019-04-18 22:00:00 6.5 4 Sudeste 10 Este 2 -- -- 96
2019-04-18 21:00:00 6.7 8 Este 10 Este 2 -- -- 95
2019-04-18 20:00:00 6.9 7 Este 18 Este 1.6 -- -- 95
2019-04-18 19:00:00 7.2 7 Nordeste 10 Nordeste 3.4 -- -- 96
2019-04-18 18:00:00 7.5 3 Nordeste 5 Oeste 2 -- -- 95
2019-04-18 17:00:00 7.3 3 Noroeste 6 Oeste 2.4 -- -- 96
2019-04-18 16:00:00 7.1 3 Norte 8 Noroeste 0.6 -- -- 95
2019-04-18 15:00:00 6.8 5 Norte 18 Noroeste 1.8 -- -- 96
2019-04-18 14:00:00 6.3 13 Oeste 18 Oeste 2 -- -- 96
2019-04-18 13:00:00 6.3 9 Noroeste 15 Oeste 0.8 -- -- 94
2019-04-18 12:00:00 6.4 8 Noroeste 15 Noroeste 1.4 -- -- 94
2019-04-18 11:00:00 6.6 14 Noroeste 22 Oeste 2 -- -- 94
2019-04-18 10:00:00 7.2 10 Sudoeste 15 Sudoeste 4.6 -- -- 95
2019-04-18 09:00:00 7.2 10 Este 18 Oeste 4.2 -- -- 94
2019-04-18 08:00:00 7.5 15 Sudoeste 26 Sudoeste 1.2 -- -- 92
2019-04-18 07:00:00 8.5 24 Sudoeste 42 Sur 2 -- -- 90
2019-04-18 06:00:00 9.5 26 Sudeste 38 Sudeste 1.4 -- -- 92
2019-04-18 05:00:00 9.7 18 Sudeste 29 Sudeste 1 -- -- 93
2019-04-18 04:00:00 10.7 8 Sudoeste 25 Sudoeste 0.2 -- -- 85
2019-04-18 03:00:00 10.9 9 Sur 19 Sudeste 0 -- -- 78
2019-04-18 02:00:00 11.8 9 Sur 15 Sur 0 -- -- 73
2019-04-18 01:00:00 13.5 4 Sur 25 Oeste 0 -- -- 66
2019-04-18 00:00:00 14.4 16 Oeste 24 Oeste 0 -- -- 62
2019-04-17 23:00:00 15.1 8 Sur 25 Sur 0 -- -- 55
2019-04-17 22:00:00 15.8 15 Sur 23 Sudeste 0 -- -- 51
2019-04-17 21:00:00 15.9 21 Sudeste 46 Este 0 -- -- 60
2019-04-17 20:00:00 17.2 30 Sudeste 46 Sudeste 0 -- -- 56
2019-04-17 19:00:00 20.8 27 Sur 44 Sudeste 0 -- -- 31
2019-04-17 18:00:00 21.7 24 Sudeste 45 Sudeste 0 -- -- 30
2019-04-17 17:00:00 21.2 25 Sur 44 Sudoeste 0 -- -- 34
2019-04-17 16:00:00 19.2 34 Sudoeste 55 Sudoeste 0 -- -- 38
2019-04-17 15:00:00 16.9 18 Sur 35 Sur 0 -- -- 49
2019-04-17 14:00:00 15.5 24 Sur 36 Sur 0 -- -- 53
2019-04-17 13:00:00 14.1 25 Sur 32 Sur 0 -- -- 58
2019-04-17 12:00:00 12.4 20 Sur 30 Sudeste 0 -- -- 66
2019-04-17 11:00:00 10.4 13 Sudeste 21 Sudeste 0 -- -- 75
2019-04-17 10:00:00 9.5 13 Sudeste 19 Sudeste 0 -- -- 80
2019-04-17 09:00:00 8.4 10 Sur 31 Sur 0 -- -- 84
2019-04-17 08:00:00 7.2 9 Sudeste 22 Este 0 -- -- 85
2019-04-17 07:00:00 7.4 15 Sudeste 20 Sudeste 0 -- -- 85
2019-04-17 06:00:00 8.1 10 Sur 23 Sur 0 -- -- 82
2019-04-17 05:00:00 8.1 13 Sur 19 Sudeste 0 -- -- 83
2019-04-17 04:00:00 9 8 Sur 25 Sur 0 -- -- 79
2019-04-17 03:00:00 8.9 0 Calma 18 Sudeste 0 -- -- 73
2019-04-17 02:00:00 9.1 14 Sudeste 30 Sudeste 0 -- -- 72
2019-04-17 01:00:00 8.9 19 Sudeste 27 Sudeste 0 -- -- 73
2019-04-17 00:00:00 9.8 17 Sudeste 24 Sur 0 -- -- 69
2019-04-16 23:00:00 10.4 18 Sudeste 23 Sudeste 0 -- -- 64
2019-04-16 22:00:00 10.9 17 Sudeste 20 Sudeste 0 -- -- 55
2019-04-16 21:00:00 14.3 13 Sur 21 Sudoeste 0 -- -- 48
2019-04-16 20:00:00 16.1 18 Sudoeste 30 Sudoeste 0 -- -- 42
2019-04-16 19:00:00 16.9 18 Sudoeste 34 Sudoeste 0 -- -- 39
2019-04-16 18:00:00 17.7 21 Sudoeste 39 Sudoeste 0 -- -- 37
2019-04-16 17:00:00 17.7 15 Sudoeste 30 Sudoeste 0 -- -- 36
2019-04-16 16:00:00 17 14 Sudeste 34 Sudeste 0 -- -- 36
2019-04-16 15:00:00 15.6 15 Sudeste 24 Sudeste 0 -- -- 41
2019-04-16 14:00:00 14.4 9 Sudeste 24 Este 0 -- -- 46
2019-04-16 13:00:00 12.7 10 Sur 17 Sur 0 -- -- 56
2019-04-16 12:00:00 11.2 4 Sudeste 13 Sudeste 0 -- -- 72
2019-04-16 11:00:00 8.5 3 Sudeste 12 Norte 0 -- -- 86
2019-04-16 10:00:00 6.3 4 Norte 8 Norte 0 -- -- 96
2019-04-16 09:00:00 4.7 0 Calma 5 Sudeste 0 -- -- 96
2019-04-16 08:00:00 3.4 2 Este 11 Sudeste 0 -- -- 94
2019-04-16 07:00:00 3.8 4 Sudeste 10 Noroeste 0 -- -- 90
2019-04-16 06:00:00 4.9 4 Sudeste 9 Oeste 0 -- -- 89
2019-04-16 05:00:00 5.7 2 Noroeste 12 Noroeste 0 -- -- 89
2019-04-16 04:00:00 5.9 4 Oeste 8 Norte 0 -- -- 86
2019-04-16 03:00:00 6.6 3 Norte 12 Noroeste 0 -- -- 82
2019-04-16 02:00:00 7.4 10 Noroeste 22 Noroeste 0 -- -- 76
2019-04-16 01:00:00 8.3 15 Noroeste 39 Noroeste 0 -- -- 69
2019-04-16 00:00:00 9.4 33 Noroeste 50 Oeste 0 -- -- 66
2019-04-15 23:00:00 9.4 36 Noroeste 51 Noroeste 0 -- -- 73
2019-04-15 22:00:00 10.2 34 Noroeste 70 Noroeste 0 -- -- 71
2019-04-15 21:00:00 11.4 39 Noroeste 53 Noroeste 0.2 -- -- 75
2019-04-15 20:00:00 13.9 39 Noroeste 62 Sudoeste 0 -- -- 69
2019-04-15 19:00:00 19.5 40 Oeste 60 Sudoeste 0 -- -- 38
2019-04-15 18:00:00 18.7 23 Sudoeste 37 Sudoeste 0.4 -- -- 57
2019-04-15 17:00:00 16.2 27 Oeste 50 Sudoeste 0 -- -- 66
2019-04-15 16:00:00 17.8 27 Sudoeste 52 Sur 0 -- -- 57
2019-04-15 15:00:00 17.9 37 Sudoeste 52 Sudoeste 0 -- -- 58
2019-04-15 14:00:00 17.5 30 Sudoeste 54 Sudoeste 0 -- -- 61
2019-04-15 13:00:00 16.9 27 Sudoeste 50 Sudoeste 0 -- -- 64
2019-04-15 12:00:00 16.7 24 Sur 36 Sudoeste 0 -- -- 65
2019-04-15 11:00:00 14.3 18 Sur 28 Sudeste 0 -- -- 74
2019-04-15 10:00:00 12.9 19 Sur 23 Sur 0 -- -- 77
2019-04-15 09:00:00 10.6 9 Sudeste 13 Sudeste 0 -- -- 84
2019-04-15 08:00:00 9.8 9 Sur 16 Sudeste 0 -- -- 82
2019-04-15 07:00:00 9.5 10 Sur 18 Sur 0 -- -- 83
2019-04-15 06:00:00 7.9 4 Sudeste 9 Este 0 -- -- 88
2019-04-15 05:00:00 7.5 2 Sudeste 6 Sudeste 0 -- -- 86
2019-04-15 04:00:00 7.6 3 Sudeste 8 Sudeste 0 -- -- 86
2019-04-15 03:00:00 7.6 5 Sudeste 8 Sudeste 0 -- -- 86
2019-04-15 02:00:00 8 3 Sudoeste 10 Oeste 0 -- -- 83
2019-04-15 01:00:00 9.2 3 Este 17 Sudeste 0 -- -- 78
2019-04-15 00:00:00 10.1 0 Calma 5 Sudeste 0 -- -- 76
2019-04-14 23:00:00 11.7 2 Oeste 7 Oeste 0 -- -- 70
2019-04-14 22:00:00 13.5 3 Oeste 8 Oeste 0 -- -- 63
2019-04-14 21:00:00 15 4 Noroeste 17 Noroeste 0 -- -- 58
2019-04-14 20:00:00 16.6 13 Noroeste 27 Norte 0 -- -- 54
2019-04-14 19:00:00 17.7 17 Noroeste 28 Noroeste 0 -- -- 51
2019-04-14 18:00:00 18 20 Noroeste 33 Noroeste 0 -- -- 52
2019-04-14 17:00:00 18.7 17 Norte 35 Noroeste 0 -- -- 49
2019-04-14 16:00:00 17.9 21 Noroeste 41 Noroeste 0 -- -- 52
2019-04-14 15:00:00 17.1 21 Noroeste 37 Noroeste 0 -- -- 54
2019-04-14 14:00:00 15.9 28 Noroeste 43 Noroeste 0 -- -- 60
2019-04-14 13:00:00 14.8 30 Oeste 43 Noroeste 0 -- -- 65
2019-04-14 12:00:00 13.6 27 Noroeste 37 Oeste 0 -- -- 71
2019-04-14 11:00:00 13.4 21 Noroeste 31 Noroeste 0 -- -- 72
2019-04-14 10:00:00 12.1 19 Oeste 28 Oeste 0 -- -- 78
2019-04-14 09:00:00 10.8 18 Noroeste 30 Oeste 0 -- -- 83
2019-04-14 08:00:00 10.6 19 Noroeste 29 Oeste 0 -- -- 82
2019-04-14 07:00:00 10.6 18 Noroeste 30 Oeste 0 -- -- 80
2019-04-14 06:00:00 10.8 23 Noroeste 37 Oeste 0 -- -- 74
2019-04-14 05:00:00 8.1 7 Noroeste 18 Noroeste 0 -- -- 65
2019-04-14 04:00:00 5.3 4 Sudeste 6 Este 0 -- -- 60
2019-04-14 03:00:00 4.9 4 Este 5 Sudeste 0 -- -- 61
2019-04-14 02:00:00 6.9 2 Sur 4 Sudeste 0 -- -- 50
2019-04-14 01:00:00 7 2 Sudeste 10 Oeste 0 -- -- 48
2019-04-14 00:00:00 8.9 4 Oeste 10 Oeste 0 -- -- 42
2019-04-13 23:00:00 9.8 6 Oeste 15 Noroeste 0 -- -- 38
2019-04-13 22:00:00 10.7 5 Noroeste 18 Noroeste 0 -- -- 35
2019-04-13 21:00:00 13.5 12 Noroeste 28 Noroeste 0 -- -- 28
2019-04-13 20:00:00 16.3 18 Noroeste 30 Noroeste 0 -- -- 21
2019-04-13 19:00:00 18 16 Noroeste 28 Noroeste 0 -- -- 17
2019-04-13 18:00:00 18.1 10 Noroeste 30 Noroeste 0 -- -- 16
2019-04-13 17:00:00 18 10 Norte 27 Noroeste 0 -- -- 16
2019-04-13 16:00:00 17.3 9 Norte 27 Noroeste 0 -- -- 17
2019-04-13 15:00:00 16.4 8 Norte 24 Noroeste 0 -- -- 15
2019-04-13 14:00:00 14.9 12 Noroeste 27 Noroeste 0 -- -- 13
2019-04-13 13:00:00 14.3 16 Noroeste 26 Oeste 0 -- -- 20
2019-04-13 12:00:00 13.1 16 Noroeste 23 Noroeste 0 -- -- 20
2019-04-13 11:00:00 10.3 10 Noroeste 17 Norte 0 -- -- 38
2019-04-13 10:00:00 4.7 0 Calma 4 Este 0 -- -- 71
2019-04-13 09:00:00 0.1 0 Calma 4 Oeste 0 -- -- 84
2019-04-13 08:00:00 -2.8 0 Calma 6 Sudeste 0 -- -- 80
2019-04-13 07:00:00 -1.6 0 Calma 5 Oeste 0 -- -- 76
2019-04-13 06:00:00 -1.1 3 Oeste 5 Oeste 0 -- -- 73
2019-04-13 05:00:00 1.3 0 Calma 4 Norte 0 -- -- 67
2019-04-13 04:00:00 1.6 0 Calma 9 Oeste 0 -- -- 68
2019-04-13 03:00:00 1.8 6 Oeste 9 Oeste 0 -- -- 71
2019-04-13 02:00:00 3.1 0 Calma 4 Oeste 0 -- -- 66
2019-04-13 01:00:00 4.7 3 Oeste 10 Noroeste 0 -- -- 60
2019-04-13 00:00:00 5.9 5 Noroeste 12 Noroeste 0 -- -- 56
2019-04-12 23:00:00 7.2 7 Noroeste 29 Noroeste 0 -- -- 52
2019-04-12 22:00:00 9.2 25 Noroeste 33 Noroeste 0 -- -- 47
2019-04-12 21:00:00 10.7 21 Noroeste 35 Noroeste 0 -- -- 45
2019-04-12 20:00:00 12.9 27 Noroeste 35 Noroeste 0 -- -- 40
2019-04-12 19:00:00 14.4 19 Noroeste 29 Noroeste 0 -- -- 35
2019-04-12 18:00:00 14.6 17 Noroeste 31 Noroeste 0 -- -- 35
2019-04-12 17:00:00 14 19 Noroeste 33 Noroeste 0 -- -- 38
2019-04-12 16:00:00 13.4 18 Noroeste 35 Noroeste 0 -- -- 36
2019-04-12 15:00:00 11.8 19 Noroeste 34 Noroeste 0 -- -- 40
2019-04-12 14:00:00 10.7 17 Noroeste 33 Norte 0 -- -- 45
2019-04-12 13:00:00 8.9 19 Noroeste 34 Oeste 0 -- -- 53
2019-04-12 12:00:00 8.2 18 Noroeste 28 Noroeste 0 -- -- 60
2019-04-12 11:00:00 6.8 15 Noroeste 22 Norte 0 -- -- 67
2019-04-12 10:00:00 4.6 8 Norte 19 Noroeste 0 -- -- 82
2019-04-12 09:00:00 1.5 6 Noroeste 10 Oeste 0 -- -- 91
2019-04-12 08:00:00 -0.2 4 Oeste 9 Noroeste 0 -- -- 91
2019-04-12 07:00:00 0.5 4 Oeste 7 Noroeste 0 -- -- 89
2019-04-12 06:00:00 0.6 6 Oeste 8 Oeste 0 -- -- 90
2019-04-12 05:00:00 0.5 4 Oeste 11 Norte 0 -- -- 88
2019-04-12 04:00:00 1.3 5 Noroeste 12 Oeste 0 -- -- 85
2019-04-12 03:00:00 1 6 Noroeste 12 Noroeste 0 -- -- 87
2019-04-12 02:00:00 1.6 5 Oeste 15 Oeste 0 -- -- 86
2019-04-12 01:00:00 2.7 3 Norte 8 Norte 0 -- -- 82
2019-04-12 00:00:00 3.4 4 Norte 14 Norte 0 -- -- 79
2019-04-11 23:00:00 4.4 6 Norte 14 Norte 0 -- -- 75
2019-04-11 22:00:00 5.8 7 Norte 25 Norte 0 -- -- 69
2019-04-11 21:00:00 7.4 10 Norte 20 Norte 0 -- -- 60
2019-04-11 20:00:00 8.9 16 Noroeste 31 Norte 0 -- -- 52
2019-04-11 19:00:00 9 22 Norte 40 Norte 0 -- -- 51
2019-04-11 18:00:00 10.5 29 Noroeste 44 Noroeste 0 -- -- 48
2019-04-11 17:00:00 10 27 Noroeste 45 Noroeste 0 -- -- 52
2019-04-11 16:00:00 9.7 29 Noroeste 43 Noroeste 0 -- -- 55
2019-04-11 15:00:00 9 26 Noroeste 40 Noroeste 0 -- -- 57
2019-04-11 14:00:00 10.2 20 Norte 31 Norte 0 -- -- 48
2019-04-11 13:00:00 9.4 19 Norte 30 Norte 0 -- -- 53
2019-04-11 12:00:00 7.8 14 Norte 32 Norte 0 -- -- 61
2019-04-11 11:00:00 5.9 15 Noroeste 29 Noroeste 0 -- -- 74
2019-04-11 10:00:00 3.7 18 Noroeste 28 Noroeste 0 -- -- 82
2019-04-11 09:00:00 1.9 10 Noroeste 16 Noroeste 0 -- -- 92
2019-04-11 08:00:00 0.8 4 Noroeste 18 Noroeste 0 -- -- 93
2019-04-11 07:00:00 0.6 6 Noroeste 13 Noroeste 0 -- -- 92
2019-04-11 06:00:00 0.9 0 Calma 16 Noroeste 0 -- -- 90
2019-04-11 05:00:00 1.3 6 Oeste 13 Noroeste 0 -- -- 91
2019-04-11 04:00:00 1.6 9 Noroeste 16 Noroeste 0 -- -- 89
2019-04-11 03:00:00 1.8 3 Este 16 Oeste 0 -- -- 87
2019-04-11 02:00:00 2.3 10 Noroeste 14 Noroeste 0 -- -- 87
2019-04-11 01:00:00 2.8 5 Noroeste 12 Oeste 0 -- -- 86
2019-04-11 00:00:00 3 8 Oeste 12 Oeste 0 -- -- 87
2019-04-10 23:00:00 3.6 5 Norte 16 Norte 0 -- -- 82
2019-04-10 22:00:00 4.6 12 Norte 20 Norte 0 -- -- 79
2019-04-10 21:00:00 6 13 Norte 27 Noroeste 0 -- -- 81
2019-04-10 20:00:00 5.8 23 Noroeste 46 Noroeste 0.2 -- -- 82
2019-04-10 19:00:00 7.6 15 Noroeste 46 Norte 0 -- -- 70
2019-04-10 18:00:00 9.7 29 Noroeste 40 Norte 0 -- -- 58
2019-04-10 17:00:00 8.2 22 Noroeste 44 Noroeste 0.2 -- -- 71
2019-04-10 16:00:00 9.5 28 Noroeste 43 Noroeste 0 -- -- 62
2019-04-10 15:00:00 9 27 Noroeste 40 Noroeste 0 -- -- 63
2019-04-10 14:00:00 7.5 24 Noroeste 42 Noroeste 0 -- -- 67
2019-04-10 13:00:00 6.1 27 Noroeste 38 Noroeste 0 -- -- 79
2019-04-10 12:00:00 4.7 22 Noroeste 37 Noroeste 0 -- -- 86
2019-04-10 11:00:00 3.9 26 Noroeste 43 Noroeste 0 -- -- 89
2019-04-10 10:00:00 3.7 30 Noroeste 41 Noroeste 0 -- -- 90
2019-04-10 09:00:00 3 21 Noroeste 30 Noroeste 0.2 -- -- 96
2019-04-10 08:00:00 2.9 17 Noroeste 30 Noroeste 0.2 -- -- 94
2019-04-10 07:00:00 3.2 19 Noroeste 31 Oeste 0 -- -- 93
2019-04-10 06:00:00 3.2 19 Noroeste 45 Oeste 0.2 -- -- 92
2019-04-10 05:00:00 4 18 Noroeste 33 Noroeste 0 -- -- 91
2019-04-10 04:00:00 4.1 25 Noroeste 41 Oeste 0 -- -- 91
2019-04-10 03:00:00 4.3 27 Noroeste 34 Oeste 0 -- -- 88
2019-04-10 02:00:00 4.6 21 Noroeste 32 Noroeste 0 -- -- 84
2019-04-10 01:00:00 4.7 15 Noroeste 41 Oeste 0 -- -- 84
2019-04-10 00:00:00 5.2 27 Oeste 39 Noroeste 0 -- -- 79
2019-04-09 23:00:00 5 15 Oeste 28 Oeste 0 -- -- 82
2019-04-09 22:00:00 5.5 20 Oeste 44 Oeste 0 -- -- 79
2019-04-09 21:00:00 6.3 24 Noroeste 43 Oeste 0 -- -- 72
2019-04-09 20:00:00 7.2 30 Noroeste 49 Oeste 0 -- -- 67
2019-04-09 19:00:00 6.5 40 Noroeste 57 Noroeste 0 -- -- 67
2019-04-09 18:00:00 4.9 39 Noroeste 59 Oeste 0.2 -- -- 88
2019-04-09 17:00:00 6.1 33 Oeste 48 Oeste 0 -- -- 81
2019-04-09 16:00:00 4.3 22 Oeste 42 Noroeste 1.6 -- -- 88
2019-04-09 15:00:00 7.8 19 Sudoeste 31 Sudoeste 0 -- -- 71
2019-04-09 14:00:00 7.6 24 Sudoeste 42 Sudoeste 0 -- -- 77
2019-04-09 13:00:00 6.6 14 Sudoeste 46 Sudoeste 0.2 -- -- 86
2019-04-09 12:00:00 6.2 18 Sudoeste 30 Sudoeste 0 -- -- 76
2019-04-09 11:00:00 5.3 20 Sur 27 Sur 0 -- -- 84
2019-04-09 10:00:00 5.3 17 Sur 23 Sur 0 -- -- 84
2019-04-09 09:00:00 3.6 9 Sudoeste 21 Oeste 0 -- -- 87
2019-04-09 08:00:00 4.1 17 Oeste 25 Oeste 0 -- -- 84
2019-04-09 07:00:00 4.4 12 Noroeste 21 Oeste 0 -- -- 82
2019-04-09 06:00:00 4.2 12 Oeste 38 Oeste 0 -- -- 84
2019-04-09 05:00:00 3.6 15 Oeste 24 Oeste 0 -- -- 87
2019-04-09 04:00:00 3.4 11 Oeste 16 Noroeste 0 -- -- 83
2019-04-09 03:00:00 4.2 6 Oeste 15 Oeste 0 -- -- 80
2019-04-09 02:00:00 5.1 14 Oeste 21 Oeste 0 -- -- 78
2019-04-09 01:00:00 6.3 7 Oeste 26 Oeste 0 -- -- 75
2019-04-09 00:00:00 6.1 8 Oeste 26 Sur 0 -- -- 86
2019-04-08 23:00:00 5.9 18 Sur 30 Sur 0 -- -- 86
2019-04-08 22:00:00 8.4 6 Oeste 18 Noroeste 0 -- -- 63
2019-04-08 21:00:00 8.5 12 Noroeste 22 Noroeste 0 -- -- 63
2019-04-08 20:00:00 10.1 15 Noroeste 39 Noroeste 0 -- -- 57
2019-04-08 19:00:00 12 26 Noroeste 41 Oeste 0 -- -- 49
2019-04-08 18:00:00 12.4 32 Noroeste 47 Noroeste 0 -- -- 47
2019-04-08 17:00:00 12.5 34 Noroeste 49 Oeste 0 -- -- 49
2019-04-08 16:00:00 10.8 39 Noroeste 51 Noroeste 0.2 -- -- 63
2019-04-08 15:00:00 10.6 35 Noroeste 48 Noroeste 0 -- -- 63
2019-04-08 14:00:00 10.1 35 Oeste 49 Oeste 0 -- -- 74
2019-04-08 13:00:00 9.8 28 Noroeste 42 Noroeste 0 -- -- 77
2019-04-08 12:00:00 8.2 29 Oeste 39 Oeste 0.2 -- -- 85
2019-04-08 11:00:00 7.4 12 Oeste 31 Sudoeste 0 -- -- 92
2019-04-08 10:00:00 6.1 20 Sudoeste 32 Sudoeste 0 -- -- 93
2019-04-08 09:00:00 5.4 24 Sudoeste 32 Sudoeste 0.4 -- -- 95
2019-04-08 08:00:00 5.2 24 Sudoeste 36 Sudoeste 0.2 -- -- 94
2019-04-08 07:00:00 5 28 Sudoeste 37 Sudoeste 0 -- -- 94
2019-04-08 06:00:00 4.6 30 Sudoeste 38 Sudoeste 0 -- -- 95
2019-04-08 05:00:00 4.5 31 Sudoeste 43 Sudoeste 0 -- -- 96
2019-04-08 04:00:00 4.2 31 Sudoeste 43 Sudoeste 0 -- -- 95
2019-04-08 03:00:00 4.1 31 Sudoeste 46 Sudoeste 0 -- -- 94
2019-04-08 02:00:00 3.8 34 Sudoeste 45 Sudoeste 0 -- -- 92
2019-04-08 01:00:00 3.6 31 Sudoeste 41 Sudoeste 0.4 -- -- 91
2019-04-08 00:00:00 3.8 12 Sudoeste 21 Sudoeste 0.4 -- -- 90
2019-04-07 23:00:00 4.3 15 Sudoeste 32 Sudoeste 0.2 -- -- 84
2019-04-07 22:00:00 5.6 23 Sudoeste 31 Sudoeste 0 -- -- 72
2019-04-07 21:00:00 6.6 22 Sudoeste 34 Oeste 0 -- -- 60
2019-04-07 20:00:00 8.4 14 Oeste 25 Oeste 0 -- -- 49
2019-04-07 19:00:00 8.6 20 Oeste 33 Oeste 0 -- -- 44
2019-04-07 18:00:00 9.2 20 Oeste 33 Oeste 0 -- -- 41
2019-04-07 17:00:00 8.9 19 Noroeste 31 Oeste 0 -- -- 46
2019-04-07 16:00:00 7.8 17 Oeste 29 Noroeste 0 -- -- 53
2019-04-07 15:00:00 6.8 13 Oeste 33 Oeste 0 -- -- 62
2019-04-07 14:00:00 4.9 27 Oeste 36 Oeste 0 -- -- 62
2019-04-07 13:00:00 4.1 25 Oeste 37 Oeste 0 -- -- 75
2019-04-07 12:00:00 3.3 18 Noroeste 27 Noroeste 0 -- -- 80
2019-04-07 11:00:00 2.2 17 Noroeste 28 Noroeste 0 -- -- 85
2019-04-07 10:00:00 2.1 22 Noroeste 38 Noroeste 0 -- -- 84
2019-04-07 09:00:00 1.8 23 Noroeste 41 Oeste 0 -- -- 87
2019-04-07 08:00:00 1.7 28 Noroeste 43 Oeste 0 -- -- 86
2019-04-07 07:00:00 2.1 21 Noroeste 34 Noroeste 0 -- -- 87
2019-04-07 06:00:00 2.2 30 Noroeste 41 Noroeste 0 -- -- 84
2019-04-07 05:00:00 2.3 28 Noroeste 43 Noroeste 0 -- -- 84
2019-04-07 04:00:00 2.4 26 Noroeste 41 Oeste 0 -- -- 84
2019-04-07 03:00:00 2.6 28 Oeste 42 Oeste 0 -- -- 82
2019-04-07 02:00:00 2.8 33 Oeste 46 Oeste 0 -- -- 81
2019-04-07 01:00:00 2.6 33 Oeste 51 Oeste 0 -- -- 82
2019-04-07 00:00:00 3.2 31 Oeste 52 Oeste 0 -- -- 85
2019-04-06 23:00:00 3.1 24 Oeste 41 Oeste 0 -- -- 86
2019-04-06 22:00:00 3.9 25 Oeste 39 Oeste 0 -- -- 80
2019-04-06 21:00:00 3.8 24 Oeste 35 Oeste 0.2 -- -- 84
2019-04-06 20:00:00 3.9 27 Oeste 49 Oeste 0 -- -- 88
2019-04-06 19:00:00 3.1 33 Oeste 72 Oeste 0.2 -- -- 89
2019-04-06 18:00:00 5.5 23 Oeste 59 Oeste 0 -- -- 71
2019-04-06 17:00:00 4.9 35 Oeste 73 Oeste 0 -- -- 77
2019-04-06 16:00:00 6.2 25 Oeste 73 Oeste 0.2 -- -- 74
2019-04-06 15:00:00 5.4 28 Oeste 45 Noroeste 0 -- -- 80
2019-04-06 14:00:00 5.4 30 Sudoeste 41 Sudoeste 0 -- -- 76
2019-04-06 13:00:00 3.5 30 Sudoeste 47 Sudoeste 0 -- -- 92
2019-04-06 12:00:00 2 35 Sudoeste 45 Sudoeste 1 -- -- 90
2019-04-06 11:00:00 1.1 28 Sudoeste 39 Sudoeste 0.6 -- -- 93
2019-04-06 10:00:00 0.7 24 Sudoeste 33 Sudoeste 0.4 -- -- 92
2019-04-06 09:00:00 0.8 13 Sur 22 Oeste 0.2 -- -- 90
2019-04-06 08:00:00 0.8 12 Oeste 22 Oeste 0 -- -- 91
2019-04-06 07:00:00 0 0 Calma 10 Oeste 0 -- -- 94
2019-04-06 06:00:00 -0.4 8 Oeste 17 Oeste 0 -- -- 95
2019-04-06 05:00:00 -0.6 5 Oeste 15 Oeste 0 -- -- 94
2019-04-06 04:00:00 -0.7 2 Oeste 6 Oeste 0 -- -- 91
2019-04-06 03:00:00 -0.2 5 Oeste 12 Oeste 0 -- -- 90
2019-04-06 02:00:00 0 10 Oeste 19 Oeste 0 -- -- 91
2019-04-06 01:00:00 0 0 Calma 15 Sudoeste 0 -- -- 92
2019-04-06 00:00:00 0.4 4 Sudoeste 12 Oeste 0 -- -- 94
2019-04-05 23:00:00 0.6 10 Oeste 27 Oeste 0.2 -- -- 94
2019-04-05 22:00:00 0.6 10 Oeste 21 Noroeste 0.2 -- -- 96
2019-04-05 21:00:00 0.6 21 Noroeste 31 Noroeste 0.6 -- -- 97
2019-04-05 20:00:00 0.4 5 Oeste 8 Sudoeste 0.4 -- -- 96
2019-04-05 19:00:00 1.1 0 Calma 5 Oeste 1.4 -- -- 95
2019-04-05 18:00:00 1 0 Calma 5 Oeste 0.8 -- -- 95
2019-04-05 17:00:00 0.4 3 Oeste 44 Oeste 0 -- -- 96
2019-04-05 16:00:00 4.8 14 Sudoeste 36 Sudoeste 0 -- -- 79
2019-04-05 15:00:00 5.8 21 Sudoeste 48 Sudoeste 0 -- -- 75
2019-04-05 14:00:00 4.5 27 Sur 50 Sudoeste 0 -- -- 85
2019-04-05 13:00:00 4 36 Sur 53 Sudoeste 0 -- -- 86
2019-04-05 12:00:00 4.2 28 Sudoeste 43 Sudoeste 0 -- -- 84
2019-04-05 11:00:00 3.7 15 Sudoeste 42 Sudoeste 0 -- -- 90
2019-04-05 10:00:00 3.2 28 Sur 50 Sur 0 -- -- 93
2019-04-05 09:00:00 2.5 27 Sudoeste 47 Sudoeste 0.2 -- -- 92
2019-04-05 08:00:00 2.2 27 Sudoeste 51 Sudoeste 0 -- -- 91
2019-04-05 07:00:00 2.4 35 Sudoeste 62 Sudoeste 0 -- -- 90
2019-04-05 06:00:00 2.8 45 Sudoeste 60 Sudoeste 0 -- -- 86
2019-04-05 05:00:00 3 30 Sudoeste 46 Sudoeste 0 -- -- 82
2019-04-05 04:00:00 5.1 35 Sudoeste 48 Sudoeste 0 -- -- 61
2019-04-05 03:00:00 5.4 21 Oeste 47 Oeste 0 -- -- 59
2019-04-05 02:00:00 6.1 13 Oeste 30 Sudoeste 0 -- -- 44
2019-04-05 01:00:00 5.6 6 Sudoeste 8 Sudoeste 0 -- -- 42
2019-04-05 00:00:00 5.9 4 Sudoeste 9 Oeste 0 -- -- 37
2019-04-04 23:00:00 6.3 5 Oeste 25 Sudoeste 0 -- -- 37
2019-04-04 22:00:00 6.5 20 Sudoeste 28 Sur 0 -- -- 36
2019-04-04 21:00:00 7.4 20 Sudoeste 33 Sudoeste 0 -- -- 35
2019-04-04 20:00:00 8.1 23 Sudoeste 39 Sudoeste 0 -- -- 33
2019-04-04 19:00:00 8.5 27 Sudoeste 44 Sudoeste 0 -- -- 31
2019-04-04 18:00:00 9.1 32 Sudoeste 44 Sudoeste 0 -- -- 33
2019-04-04 17:00:00 10.4 29 Sudoeste 46 Sudoeste 0 -- -- 32
2019-04-04 16:00:00 10 17 Sudoeste 31 Sudeste 0 -- -- 32
2019-04-04 15:00:00 8.5 13 Noroeste 33 Noroeste 0 -- -- 39
2019-04-04 14:00:00 6.5 20 Noroeste 35 Noroeste 0 -- -- 45
2019-04-04 13:00:00 4.8 15 Noroeste 33 Noroeste 0 -- -- 51
2019-04-04 12:00:00 3.7 23 Noroeste 36 Oeste 0 -- -- 60
2019-04-04 11:00:00 1.9 25 Noroeste 35 Oeste 0 -- -- 64
2019-04-04 10:00:00 0.1 18 Noroeste 28 Oeste 0 -- -- 73
2019-04-04 09:00:00 -2 6 Oeste 17 Oeste 0 -- -- 81
2019-04-04 08:00:00 -3.2 11 Oeste 15 Oeste 0 -- -- 84
2019-04-04 07:00:00 -2.6 6 Noroeste 18 Oeste 0 -- -- 79
2019-04-04 06:00:00 -2.3 12 Oeste 23 Oeste 0 -- -- 79
2019-04-04 05:00:00 -2.3 11 Oeste 21 Oeste 0 -- -- 82
2019-04-04 04:00:00 -1.9 11 Oeste 20 Oeste 0 -- -- 82
2019-04-04 03:00:00 -1.8 14 Oeste 18 Oeste 0 -- -- 83
2019-04-04 02:00:00 -1.1 13 Oeste 18 Noroeste 0 -- -- 82
2019-04-04 01:00:00 0 12 Noroeste 18 Noroeste 0 -- -- 81
2019-04-04 00:00:00 -0.6 9 Noroeste 13 Noroeste 0 -- -- 88
2019-04-03 23:00:00 0.8 4 Noroeste 10 Noroeste 0 -- -- 84
2019-04-03 22:00:00 2.5 6 Oeste 21 Oeste 0 -- -- 75
2019-04-03 21:00:00 2.5 13 Noroeste 23 Noroeste 0 -- -- 78
2019-04-03 20:00:00 4.4 15 Noroeste 50 Noroeste 0 -- -- 67
2019-04-03 19:00:00 6.7 27 Noroeste 50 Noroeste 0 -- -- 50
2019-04-03 18:00:00 7.6 26 Noroeste 47 Noroeste 0 -- -- 46
2019-04-03 17:00:00 7.6 26 Noroeste 45 Oeste 0 -- -- 47
2019-04-03 16:00:00 8.2 30 Oeste 53 Oeste 0 -- -- 45
2019-04-03 15:00:00 6.5 30 Oeste 46 Oeste 0 -- -- 60
2019-04-03 14:00:00 6.4 31 Noroeste 46 Noroeste 0 -- -- 72
2019-04-03 13:00:00 6.5 32 Noroeste 55 Noroeste 0 -- -- 72
2019-04-03 12:00:00 6.3 29 Noroeste 37 Noroeste 0 -- -- 73
2019-04-03 11:00:00 6.4 31 Oeste 42 Oeste 0 -- -- 76
2019-04-03 10:00:00 5.8 30 Noroeste 39 Noroeste 0 -- -- 77
2019-04-03 09:00:00 5.5 27 Oeste 39 Oeste 0 -- -- 75
2019-04-03 08:00:00 4.2 9 Oeste 17 Oeste 0 -- -- 83
2019-04-03 07:00:00 4.9 12 Oeste 20 Oeste 0 -- -- 77
2019-04-03 06:00:00 5.5 14 Oeste 23 Oeste 0 -- -- 73
2019-04-03 05:00:00 5.8 12 Sudoeste 37 Sudoeste 0 -- -- 70
2019-04-03 04:00:00 7.4 24 Oeste 39 Sudoeste 0 -- -- 61
2019-04-03 03:00:00 7.5 28 Sudoeste 40 Sudoeste 0 -- -- 64
2019-04-03 02:00:00 6.9 10 Oeste 31 Sudoeste 0 -- -- 72
2019-04-03 01:00:00 7.1 23 Sudoeste 36 Sudoeste 0 -- -- 88
2019-04-03 00:00:00 7.3 31 Sudoeste 36 Sudoeste 0 -- -- 87
2019-04-02 23:00:00 7.9 28 Sur 36 Sur 0 -- -- 84
2019-04-02 22:00:00 9.3 28 Sudoeste 42 Sudoeste 0.2 -- -- 78
2019-04-02 21:00:00 8.1 13 Sur 22 Sudeste 0 -- -- 85
2019-04-02 20:00:00 8.8 13 Sudeste 34 Norte 0 -- -- 83
2019-04-02 19:00:00 8.3 21 Noroeste 50 Noroeste 1.4 -- -- 80
2019-04-02 18:00:00 13 17 Sudoeste 28 Sudoeste 0 -- -- 62
2019-04-02 17:00:00 11.8 7 Sudoeste 18 Sur 0 -- -- 71
2019-04-02 16:00:00 8 15 Sudeste 25 Sudoeste 2.6 -- -- 85
2019-04-02 15:00:00 8.9 18 Sur 45 Sudoeste 4.2 -- -- 77
2019-04-02 14:00:00 12.4 5 Sur 18 Oeste 0 -- -- 62
2019-04-02 13:00:00 11.9 4 Este 15 Oeste 0 -- -- 70
2019-04-02 12:00:00 10.3 3 Noroeste 14 Sur 0 -- -- 81
2019-04-02 11:00:00 7.6 3 Norte 6 Norte 0 -- -- 96
2019-04-02 10:00:00 6.3 2 Sudoeste 6 Noroeste 0 -- -- 98
2019-04-02 09:00:00 4.7 0 Calma 4 Noroeste 0 -- -- 98
2019-04-02 08:00:00 3.8 0 Calma 4 Oeste 0 -- -- 96
2019-04-02 07:00:00 4.7 2 Sudeste 8 Sur 0 -- -- 95
2019-04-02 06:00:00 5.9 4 Sudoeste 10 Sudoeste 0 -- -- 95
2019-04-02 05:00:00 6.2 3 Sur 4 Sur 0 -- -- 94
2019-04-02 04:00:00 6.5 2 Sudeste 8 Sudeste 0 -- -- 94
2019-04-02 03:00:00 6.4 3 Este 8 Sudeste 0 -- -- 94
2019-04-02 02:00:00 6.4 6 Este 11 Sur 0 -- -- 93
2019-04-02 01:00:00 6.3 6 Sudeste 9 Este 0 -- -- 93
2019-04-02 00:00:00 7.3 6 Sudeste 17 Sudeste 0 -- -- 92
2019-04-01 23:00:00 7.8 11 Sudeste 14 Sudeste 0 -- -- 92
2019-04-01 22:00:00 7.8 6 Sudeste 19 Sur 0 -- -- 85
2019-04-01 21:00:00 8.6 13 Sudeste 35 Oeste 0.4 -- -- 84
2019-04-01 20:00:00 11 8 Sur 23 Oeste 0 -- -- 67
2019-04-01 19:00:00 12.3 4 Este 12 Noroeste 0 -- -- 62
2019-04-01 18:00:00 13 10 Noroeste 29 Oeste 0 -- -- 60
2019-04-01 17:00:00 12.1 13 Noroeste 34 Noroeste 0 -- -- 66
2019-04-01 16:00:00 13.5 16 Sudoeste 27 Sudoeste 0 -- -- 56
2019-04-01 15:00:00 12.5 17 Sur 28 Sur 0 -- -- 62
2019-04-01 14:00:00 12.5 13 Sur 22 Sur 0 -- -- 62
2019-04-01 13:00:00 11 5 Sur 17 Sur 0 -- -- 73
2019-04-01 12:00:00 9.7 10 Sudeste 15 Sudeste 0 -- -- 81
2019-04-01 11:00:00 8 6 Sur 13 Sudoeste 0 -- -- 91
2019-04-01 10:00:00 6.1 7 Sudeste 12 Sudeste 0 -- -- 96
2019-04-01 09:00:00 5.3 9 Sudeste 13 Sudeste 0 -- -- 97
2019-04-01 08:00:00 4.9 7 Sudeste 13 Sudeste 0 -- -- 97
2019-04-01 07:00:00 4.7 8 Sudeste 19 Sudeste 0.2 -- -- 97
2019-04-01 06:00:00 4.6 16 Sudeste 20 Sudeste 0 -- -- 97
2019-04-01 05:00:00 4.6 14 Este 17 Este 0 -- -- 96
2019-04-01 04:00:00 4.6 7 Este 10 Este 0 -- -- 95
2019-04-01 03:00:00 4.5 8 Este 18 Este 0 -- -- 95
2019-04-01 02:00:00 4.5 13 Este 18 Sudeste 0 -- -- 94
2019-04-01 01:00:00 4.5 14 Este 20 Este 0 -- -- 94
2019-04-01 00:00:00 4.7 7 Este 17 Este 0 -- -- 94
2019-03-31 23:00:00 4.7 14 Este 26 Este 0 -- -- 94
2019-03-31 22:00:00 5.2 16 Este 23 Este 0 -- -- 93
2019-03-31 21:00:00 5.5 9 Este 22 Este 0 -- -- 93
2019-03-31 20:00:00 5.6 16 Este 29 Este 0.6 -- -- 91
2019-03-31 19:00:00 6.2 17 Este 30 Este 0.4 -- -- 90
2019-03-31 18:00:00 7.3 21 Este 31 Este 0.2 -- -- 83
2019-03-31 17:00:00 8.1 23 Este 30 Sudeste 0 -- -- 80
2019-03-31 16:00:00 8.2 23 Este 31 Este 0 -- -- 76
2019-03-31 15:00:00 8.8 16 Sudeste 28 Sudeste 0 -- -- 75
2019-03-31 14:00:00 10.6 17 Sudeste 33 Este 0 -- -- 53
2019-03-31 13:00:00 10.1 27 Este 41 Sudeste 0 -- -- 50
2019-03-31 12:00:00 10 27 Sudeste 35 Sudeste 0 -- -- 46
2019-03-31 11:00:00 8.3 19 Este 25 Este 0 -- -- 60
2019-03-31 10:00:00 5.1 3 Oeste 5 Oeste 0 -- -- 74
2019-03-31 09:00:00 2.7 0 Calma 4 Este 0 -- -- 77
2019-03-31 08:00:00 2.3 0 Calma 3 Sudoeste 0 -- -- 74
2019-03-31 07:00:00 2.4 0 Calma 5 Sur 0 -- -- 74
2019-03-31 06:00:00 2.6 2 Sudoeste 5 Sudeste 0 -- -- 72
2019-03-31 05:00:00 4.2 5 Sudeste 14 Sudeste 0 -- -- 67
2019-03-31 03:00:00 5.3 10 Sudeste 17 Sudeste 0 -- -- 57
2019-03-31 01:00:00 6.5 8 Sudeste 12 Sudeste 0 -- -- 53
2019-03-31 00:00:00 7.9 6 Sudeste 37 Este 0 -- -- 47
2019-03-30 23:00:00 8.7 27 Este 36 Este 0 -- -- 44
2019-03-30 22:00:00 9 27 Este 35 Sudeste 0 -- -- 40
2019-03-30 21:00:00 9.3 21 Este 36 Sudeste 0 -- -- 41
2019-03-30 20:00:00 11.4 28 Este 36 Sudeste 0 -- -- 36
2019-03-30 19:00:00 13.6 19 Este 30 Este 0 -- -- 31
2019-03-30 18:00:00 14.8 17 Este 29 Sudeste 0 -- -- 30
2019-03-30 17:00:00 15.9 11 Sur 24 Este 0 -- -- 26
2019-03-30 16:00:00 15.8 12 Sudoeste 27 Sudeste 0 -- -- 28
2019-03-30 15:00:00 14.9 13 Sudeste 27 Sudeste 0 -- -- 30
2019-03-30 14:00:00 14.5 12 Sur 24 Sur 0 -- -- 32
2019-03-30 13:00:00 12.9 11 Este 28 Sudeste 0 -- -- 35
2019-03-30 12:00:00 12.2 14 Sudeste 27 Sudeste 0 -- -- 40
2019-03-30 11:00:00 11.3 10 Sur 21 Sur 0 -- -- 41
2019-03-30 10:00:00 9.5 13 Sur 21 Sur 0 -- -- 44
2019-03-30 09:00:00 7.2 13 Sudoeste 25 Sudoeste 0 -- -- 48
2019-03-30 08:00:00 4.5 9 Oeste 24 Sudoeste 0 -- -- 54
2019-03-30 07:00:00 3.8 19 Sudoeste 27 Sur 0 -- -- 56
2019-03-30 06:00:00 3.9 17 Sur 27 Sur 0 -- -- 57
2019-03-30 05:00:00 4.4 15 Sur 26 Sur 0 -- -- 59
2019-03-30 04:00:00 4.3 4 Sudeste 14 Sudoeste 0 -- -- 59
2019-03-30 03:00:00 5.2 16 Sudoeste 29 Sur 0 -- -- 57
2019-03-30 02:00:00 6 16 Sur 28 Sur 0 -- -- 56
2019-03-30 01:00:00 6.3 14 Sur 24 Sudoeste 0 -- -- 55
2019-03-30 00:00:00 7.1 18 Sur 25 Sur 0 -- -- 49
2019-03-29 23:00:00 7.8 16 Sur 21 Sudoeste 0 -- -- 43
2019-03-29 22:00:00 8.7 19 Sur 28 Sudeste 0 -- -- 49
2019-03-29 21:00:00 8.9 7 Sudeste 12 Este 0 -- -- 36
2019-03-29 20:00:00 11 8 Sudoeste 21 Sudoeste 0 -- -- 32
2019-03-29 19:00:00 13.8 15 Sudoeste 27 Sudoeste 0 -- -- 27
2019-03-29 18:00:00 14.6 19 Sudoeste 32 Sudoeste 0 -- -- 26
2019-03-29 17:00:00 15.2 17 Sudoeste 40 Sudoeste 0 -- -- 25
2019-03-29 16:00:00 15.4 15 Sudoeste 35 Sur 0 -- -- 26
2019-03-29 15:00:00 14.9 20 Sur 32 Sudoeste 0 -- -- 26
2019-03-29 14:00:00 14.6 17 Sur 34 Sur 0 -- -- 28
2019-03-29 13:00:00 13.7 15 Sur 34 Sudeste 0 -- -- 31
2019-03-29 12:00:00 12.6 19 Sur 35 Sudoeste 0 -- -- 33
2019-03-29 11:00:00 11 26 Sudoeste 40 Sudoeste 0 -- -- 36
2019-03-29 10:00:00 9.7 27 Sudoeste 43 Sudoeste 0 -- -- 38
2019-03-29 09:00:00 7.9 28 Sudoeste 37 Sudoeste 0 -- -- 42
2019-03-29 08:00:00 5.2 19 Sur 34 Sur 0 -- -- 51
2019-03-29 07:00:00 4.2 22 Sur 40 Sur 0 -- -- 53
2019-03-29 06:00:00 4.9 30 Sur 44 Sur 0 -- -- 50
2019-03-29 05:00:00 5.2 31 Sur 43 Sur 0 -- -- 49
2019-03-29 04:00:00 5.1 27 Sur 39 Sur 0 -- -- 50
2019-03-29 03:00:00 4.9 18 Sur 22 Sur 0 -- -- 51
2019-03-29 02:00:00 5.2 13 Sur 18 Sur 0 -- -- 54
2019-03-29 01:00:00 4.3 11 Sudeste 15 Sudeste 0 -- -- 62
2019-03-29 00:00:00 5.7 6 Sudeste 10 Este 0 -- -- 56
2019-03-28 23:00:00 6.4 6 Sudeste 17 Sudeste 0 -- -- 54
2019-03-28 22:00:00 8.4 12 Sudeste 27 Sudeste 0 -- -- 48
2019-03-28 21:00:00 9.5 18 Este 31 Este 0 -- -- 41
2019-03-28 20:00:00 12.2 26 Este 34 Este 0 -- -- 34
2019-03-28 19:00:00 14.1 19 Este 29 Este 0 -- -- 30
2019-03-28 18:00:00 15.4 17 Este 29 Este 0 -- -- 26
2019-03-28 17:00:00 16.4 12 Este 22 Este 0 -- -- 23
2019-03-28 16:00:00 16.9 7 Sur 26 Este 0 -- -- 23
2019-03-28 15:00:00 16.3 3 Noroeste 19 Este 0 -- -- 24
2019-03-28 14:00:00 15.4 9 Sudeste 23 Este 0 -- -- 25
2019-03-28 13:00:00 13.9 9 Noroeste 16 Sudoeste 0 -- -- 29
2019-03-28 12:00:00 12.8 8 Sudoeste 14 Sudeste 0 -- -- 31
2019-03-28 11:00:00 10.8 9 Este 24 Sudeste 0 -- -- 36
2019-03-28 10:00:00 8.9 12 Sudeste 19 Sudeste 0 -- -- 40
2019-03-28 09:00:00 3.4 3 Sudeste 6 Sur 0 -- -- 60
2019-03-28 08:00:00 -1.9 0 Calma 3 Sudeste 0 -- -- 67
2019-03-28 07:00:00 -3.9 0 Calma 5 Este 0 -- -- 67
2019-03-28 06:00:00 -2.9 0 Calma 5 Este 0 -- -- 64
2019-03-28 05:00:00 -2.2 2 Sudeste 8 Sudeste 0 -- -- 60
2019-03-28 04:00:00 -1.2 2 Este 6 Sudeste 0 -- -- 56
2019-03-28 03:00:00 0.5 0 Calma 5 Nordeste 0 -- -- 50
2019-03-28 02:00:00 2.5 0 Calma 5 Nordeste 0 -- -- 46
2019-03-28 01:00:00 4.9 4 Nordeste 13 Este 0 -- -- 40
2019-03-28 00:00:00 5.8 8 Nordeste 14 Nordeste 0 -- -- 37
2019-03-27 23:00:00 6.9 4 Nordeste 28 Nordeste 0 -- -- 36
2019-03-27 22:00:00 7.9 21 Nordeste 42 Nordeste 0 -- -- 34
2019-03-27 21:00:00 9.1 22 Nordeste 32 Nordeste 0 -- -- 31
2019-03-27 20:00:00 10.3 18 Nordeste 27 Nordeste 0 -- -- 28
2019-03-27 19:00:00 12.9 20 Nordeste 40 Este 0 -- -- 23
2019-03-27 18:00:00 14.3 27 Este 44 Este 0 -- -- 22
2019-03-27 17:00:00 15 27 Este 43 Este 0 -- -- 21
2019-03-27 16:00:00 15.6 23 Este 35 Este 0 -- -- 18
2019-03-27 15:00:00 15.5 20 Este 34 Nordeste 0 -- -- 18
2019-03-27 14:00:00 15 10 Nordeste 24 Este 0 -- -- 19
2019-03-27 13:00:00 13.7 12 Este 25 Este 0 -- -- 23
2019-03-27 12:00:00 12.4 13 Este 23 Nordeste 0 -- -- 25
2019-03-27 11:00:00 11.3 5 Este 16 Nordeste 0 -- -- 29
2019-03-27 10:00:00 8.2 4 Este 9 Nordeste 0 -- -- 40
2019-03-27 09:00:00 1.4 0 Calma 4 Este 0 -- -- 56
2019-03-27 08:00:00 -3 0 Calma 3 Sudeste 0 -- -- 64
2019-03-27 07:00:00 -4.9 2 Sudeste 5 Este 0 -- -- 64
2019-03-27 06:00:00 -4.2 0 Calma 3 Oeste 0 -- -- 61
2019-03-27 05:00:00 -3.9 2 Sudeste 6 Este 0 -- -- 59
2019-03-27 04:00:00 -2.1 0 Calma 5 Este 0 -- -- 54
2019-03-27 03:00:00 -0.6 0 Calma 8 Sudoeste 0 -- -- 49
2019-03-27 02:00:00 0.8 0 Calma 10 Este 0 -- -- 46
2019-03-27 01:00:00 3.3 5 Este 13 Nordeste 0 -- -- 39
2019-03-27 00:00:00 4.8 9 Nordeste 18 Sudeste 0 -- -- 35